createdAt,value
2016-05-19T00:00:42.541Z,1001.99
2016-05-19T00:01:45.293Z,1001.97
2016-05-19T00:02:42.437Z,1002
2016-05-19T00:03:45.190Z,1001.96
2016-05-19T00:04:42.130Z,1001.99
2016-05-19T00:05:42.289Z,1001.94
2016-05-19T00:06:42.025Z,1001.93
2016-05-19T00:07:41.997Z,1001.93
2016-05-19T00:08:41.937Z,1001.9
2016-05-19T00:09:41.894Z,1001.87
2016-05-19T00:10:41.834Z,1001.88
2016-05-19T00:11:41.789Z,1001.85
2016-05-19T00:12:41.745Z,1001.85
2016-05-19T00:13:41.701Z,1001.86
2016-05-19T00:14:41.642Z,1001.84
2016-05-19T00:15:41.597Z,1001.84
2016-05-19T00:16:41.553Z,1001.8
2016-05-19T00:17:41.509Z,1001.8
2016-05-19T00:18:41.449Z,1001.82
2016-05-19T00:19:41.405Z,1001.8
2016-05-19T00:20:41.360Z,1001.84
2016-05-19T00:21:44.316Z,1001.83
2016-05-19T00:22:41.272Z,1001.81
2016-05-19T00:23:41.212Z,1001.83
2016-05-19T00:24:41.169Z,1001.85
2016-05-19T00:25:41.124Z,1001.82
2016-05-19T00:26:41.064Z,1001.82
2016-05-19T00:27:41.035Z,1001.83
2016-05-19T00:28:40.960Z,1001.82
2016-05-19T00:29:40.916Z,1001.79
2016-05-19T00:30:40.871Z,1001.79
2016-05-19T00:31:40.828Z,1001.83
2016-05-19T00:32:40.767Z,1001.79
2016-05-19T00:33:40.723Z,1001.85
2016-05-19T00:34:40.679Z,1001.86
2016-05-19T00:35:40.635Z,1001.86
2016-05-19T00:36:40.576Z,1001.9
2016-05-19T00:37:40.531Z,1001.91
2016-05-19T00:38:40.472Z,1001.89
2016-05-19T00:39:40.428Z,1001.89
2016-05-19T00:40:40.383Z,1001.91
2016-05-19T00:41:40.339Z,1001.92
2016-05-19T00:42:40.279Z,1001.85
2016-05-19T00:43:40.235Z,1001.87
2016-05-19T00:44:40.191Z,1001.89
2016-05-19T00:45:40.131Z,1001.89
2016-05-19T00:46:43.102Z,1001.89
2016-05-19T00:47:43.261Z,1001.85
2016-05-19T00:48:39.999Z,1001.85
2016-05-19T00:49:39.938Z,1001.91
2016-05-19T00:50:39.894Z,1001.93
2016-05-19T00:51:39.850Z,1001.96
2016-05-19T00:52:39.790Z,1001.93
2016-05-19T00:53:39.746Z,1001.94
2016-05-19T00:54:39.702Z,1001.94
2016-05-19T00:55:42.658Z,1001.92
2016-05-19T00:56:39.599Z,1001.91
2016-05-19T00:57:39.554Z,1001.86
2016-05-19T00:58:39.493Z,1001.88
2016-05-19T00:59:39.450Z,1001.9
2016-05-19T01:00:39.406Z,1001.88
2016-05-19T01:01:39.361Z,1001.92
2016-05-19T01:02:39.301Z,1001.89
2016-05-19T01:03:39.257Z,1001.89
2016-05-19T01:04:42.229Z,1001.88
2016-05-19T01:05:39.170Z,1001.95
2016-05-19T01:06:39.109Z,1001.91
2016-05-19T01:07:39.065Z,1001.91
2016-05-19T01:08:39.021Z,1001.98
2016-05-19T01:09:41.976Z,1002.06
2016-05-19T01:10:38.917Z,1002.02
2016-05-19T01:11:38.872Z,1002.03
2016-05-19T01:12:38.813Z,1002.06
2016-05-19T01:13:38.769Z,1002.02
2016-05-19T01:14:38.725Z,1002.02
2016-05-19T01:15:38.664Z,1002.04
2016-05-19T01:16:38.636Z,1002.01
2016-05-19T01:17:38.577Z,1002.01
2016-05-19T01:18:38.533Z,1002.02
2016-05-19T01:19:38.472Z,1002.01
2016-05-19T01:20:38.427Z,1002.04
2016-05-19T01:21:38.384Z,1002.05
2016-05-19T01:22:41.341Z,1002.04
2016-05-19T01:23:38.280Z,1002.04
2016-05-19T01:24:38.438Z,1002.05
2016-05-19T01:25:38.191Z,1002.02
2016-05-19T01:26:38.147Z,1002.05
2016-05-19T01:27:38.088Z,1002.02
2016-05-19T01:28:38.043Z,1002.04
2016-05-19T01:29:37.984Z,1002.04
2016-05-19T01:30:37.940Z,1002.04
2016-05-19T01:31:37.895Z,1002.02
2016-05-19T01:32:37.835Z,1002.04
2016-05-19T01:33:37.791Z,1002.03
2016-05-19T01:34:40.747Z,1002.03
2016-05-19T01:35:37.703Z,1002
2016-05-19T01:36:37.643Z,1002.02
2016-05-19T01:37:37.598Z,1002.03
2016-05-19T01:38:37.759Z,1002.1
2016-05-19T01:39:37.510Z,1002.16
2016-05-19T01:40:40.466Z,1002.14
2016-05-19T01:41:40.422Z,1002.18
2016-05-19T01:42:37.362Z,1002.17
2016-05-19T01:43:37.334Z,1002.17
2016-05-19T01:44:37.259Z,1002.16
2016-05-19T01:45:37.214Z,1002.2
2016-05-19T01:46:37.201Z,1002.17
2016-05-19T01:47:40.125Z,1002.17
2016-05-19T01:48:37.066Z,1002.2
2016-05-19T01:49:37.022Z,1002.2
2016-05-19T01:50:36.962Z,1002.16
2016-05-19T01:51:36.918Z,1002.19
2016-05-19T01:52:40.092Z,1002.19
2016-05-19T01:53:39.814Z,1002.15
2016-05-19T01:54:39.785Z,1002.18
2016-05-19T01:55:36.725Z,1002.18
2016-05-19T01:56:36.682Z,1002.19
2016-05-19T01:57:36.621Z,1002.24
2016-05-19T01:58:39.593Z,1002.22
2016-05-19T01:59:36.533Z,1002.21
2016-05-19T02:00:39.488Z,1002.19
2016-05-19T02:01:36.429Z,1002.17
2016-05-19T02:02:36.384Z,1002.21
2016-05-19T02:03:36.340Z,1002.17
2016-05-19T02:04:36.282Z,1002.1
2016-05-19T02:05:36.237Z,1002.1
2016-05-19T02:06:36.192Z,1002.11
2016-05-19T02:07:36.132Z,1002.12
2016-05-19T02:08:36.323Z,1002.18
2016-05-19T02:09:36.060Z,1002.17
2016-05-19T02:10:36.188Z,1002.17
2016-05-19T02:11:35.940Z,1002.15
2016-05-19T02:12:35.896Z,1002.17
2016-05-19T02:13:35.853Z,1002.18
2016-05-19T02:14:36.026Z,1002.19
2016-05-19T02:15:35.748Z,1002.22
2016-05-19T02:16:35.703Z,1002.24
2016-05-19T02:17:38.659Z,1002.27
2016-05-19T02:18:35.616Z,1002.29
2016-05-19T02:19:35.539Z,1002.29
2016-05-19T02:20:35.511Z,1002.32
2016-05-19T02:21:35.452Z,1002.32
2016-05-19T02:22:38.407Z,1002.32
2016-05-19T02:23:35.347Z,1002.31
2016-05-19T02:24:38.311Z,1002.32
2016-05-19T02:25:35.252Z,1002.34
2016-05-19T02:26:35.207Z,1002.35
2016-05-19T02:27:35.163Z,1002.34
2016-05-19T02:28:35.119Z,1002.33
2016-05-19T02:29:38.060Z,1002.31
2016-05-19T02:30:35.015Z,1002.31
2016-05-19T02:31:34.955Z,1002.28
2016-05-19T02:32:34.910Z,1002.31
2016-05-19T02:33:37.882Z,1002.33
2016-05-19T02:34:34.807Z,1002.34
2016-05-19T02:35:37.763Z,1002.31
2016-05-19T02:36:37.734Z,1002.31
2016-05-19T02:37:34.862Z,1002.3
2016-05-19T02:38:34.662Z,1002.32
2016-05-19T02:39:34.554Z,1002.34
2016-05-19T02:40:34.538Z,1002.34
2016-05-19T02:41:37.538Z,1002.37
2016-05-19T02:42:37.537Z,1002.35
2016-05-19T02:43:34.537Z,1002.39
2016-05-19T02:44:34.520Z,1002.4
2016-05-19T02:45:37.532Z,1002.38
2016-05-19T02:46:34.457Z,1002.41
2016-05-19T02:47:37.443Z,1002.39
2016-05-19T02:48:34.399Z,1002.37
2016-05-19T02:49:34.370Z,1002.35
2016-05-19T02:50:34.319Z,1002.37
2016-05-19T02:51:34.281Z,1002.38
2016-05-19T02:52:37.259Z,1002.37
2016-05-19T02:53:34.188Z,1002.39
2016-05-19T02:54:34.150Z,1002.39
2016-05-19T02:55:34.109Z,1002.41
2016-05-19T02:56:34.051Z,1002.43
2016-05-19T02:57:34.024Z,1002.44
2016-05-19T02:58:36.982Z,1002.46
2016-05-19T02:59:36.925Z,1002.47
2016-05-19T03:00:36.882Z,1002.46
2016-05-19T03:01:33.838Z,1002.43
2016-05-19T03:02:33.778Z,1002.49
2016-05-19T03:03:33.736Z,1002.48
2016-05-19T03:04:36.692Z,1002.46
2016-05-19T03:05:33.836Z,1002.48
2016-05-19T03:06:36.589Z,1002.47
2016-05-19T03:07:33.529Z,1002.5
2016-05-19T03:08:33.486Z,1002.51
2016-05-19T03:09:33.441Z,1002.53
2016-05-19T03:10:36.397Z,1002.55
2016-05-19T03:11:33.338Z,1002.56
2016-05-19T03:12:33.294Z,1002.58
2016-05-19T03:13:33.250Z,1002.61
2016-05-19T03:14:33.190Z,1002.61
2016-05-19T03:15:33.146Z,1002.64
2016-05-19T03:16:36.117Z,1002.65
2016-05-19T03:17:36.058Z,1002.65
2016-05-19T03:18:36.013Z,1002.68
2016-05-19T03:19:32.938Z,1002.68
2016-05-19T03:20:32.894Z,1002.7
2016-05-19T03:21:35.849Z,1002.71
2016-05-19T03:22:32.805Z,1002.73
2016-05-19T03:23:35.760Z,1002.77
2016-05-19T03:24:32.701Z,1002.75
2016-05-19T03:25:32.657Z,1002.75
2016-05-19T03:26:32.596Z,1002.78
2016-05-19T03:27:35.568Z,1002.82
2016-05-19T03:28:32.509Z,1002.77
2016-05-19T03:29:35.480Z,1002.81
2016-05-19T03:30:32.404Z,1002.8
2016-05-19T03:31:32.360Z,1002.82
2016-05-19T03:32:32.317Z,1002.82
2016-05-19T03:33:32.257Z,1002.82
2016-05-19T03:34:32.213Z,1002.84
2016-05-19T03:35:32.168Z,1002.86
2016-05-19T03:36:32.109Z,1002.89
2016-05-19T03:37:32.064Z,1002.92
2016-05-19T03:38:32.019Z,1002.93
2016-05-19T03:39:34.976Z,1002.9
2016-05-19T03:40:31.916Z,1002.91
2016-05-19T03:41:31.887Z,1002.95
2016-05-19T03:42:31.827Z,1002.97
2016-05-19T03:43:31.783Z,1002.95
2016-05-19T03:44:31.724Z,1002.99
2016-05-19T03:45:34.679Z,1003.01
2016-05-19T03:46:34.635Z,1003.01
2016-05-19T03:47:31.778Z,1003.06
2016-05-19T03:48:31.531Z,1003.09
2016-05-19T03:49:31.691Z,1003.07
2016-05-19T03:50:31.630Z,1003.1
2016-05-19T03:51:31.383Z,1003.12
2016-05-19T03:52:31.324Z,1003.13
2016-05-19T03:53:31.280Z,1003.17
2016-05-19T03:54:31.235Z,1003.17
2016-05-19T03:55:31.175Z,1003.22
2016-05-19T03:56:31.131Z,1003.24
2016-05-19T03:57:31.087Z,1003.26
2016-05-19T03:58:31.027Z,1003.27
2016-05-19T03:59:30.982Z,1003.31
2016-05-19T04:00:30.938Z,1003.33
2016-05-19T04:01:30.878Z,1003.31
2016-05-19T04:02:30.834Z,1003.34
2016-05-19T04:03:30.790Z,1003.37
2016-05-19T04:04:30.934Z,1003.37
2016-05-19T04:05:30.889Z,1003.4
2016-05-19T04:06:30.642Z,1003.35
2016-05-19T04:07:30.801Z,1003.37
2016-05-19T04:08:33.554Z,1003.41
2016-05-19T04:09:30.495Z,1003.4
2016-05-19T04:10:30.637Z,1003.39
2016-05-19T04:11:30.390Z,1003.43
2016-05-19T04:12:30.346Z,1003.45
2016-05-19T04:13:33.302Z,1003.47
2016-05-19T04:14:30.225Z,1003.51
2016-05-19T04:15:33.197Z,1003.53
2016-05-19T04:16:30.153Z,1003.54
2016-05-19T04:17:30.094Z,1003.53
2016-05-19T04:18:33.049Z,1003.56
2016-05-19T04:19:33.005Z,1003.57
2016-05-19T04:20:32.960Z,1003.57
2016-05-19T04:21:30.088Z,1003.56
2016-05-19T04:22:29.841Z,1003.56
2016-05-19T04:23:29.797Z,1003.55
2016-05-19T04:24:32.957Z,1003.57
2016-05-19T04:25:32.709Z,1003.58
2016-05-19T04:26:32.665Z,1003.64
2016-05-19T04:27:29.590Z,1003.61
2016-05-19T04:28:29.546Z,1003.66
2016-05-19T04:29:32.501Z,1003.64
2016-05-19T04:30:29.535Z,1003.67
2016-05-19T04:31:29.397Z,1003.66
2016-05-19T04:32:29.353Z,1003.68
2016-05-19T04:33:29.309Z,1003.68
2016-05-19T04:34:29.248Z,1003.73
2016-05-19T04:35:29.204Z,1003.76
2016-05-19T04:36:32.160Z,1003.8
2016-05-19T04:37:32.116Z,1003.79
2016-05-19T04:38:29.260Z,1003.84
2016-05-19T04:39:29.012Z,1003.81
2016-05-19T04:40:28.952Z,1003.86
2016-05-19T04:41:28.909Z,1003.9
2016-05-19T04:42:28.848Z,1003.96
2016-05-19T04:43:28.804Z,1003.93
2016-05-19T04:44:28.760Z,1003.95
2016-05-19T04:45:28.700Z,1003.97
2016-05-19T04:46:28.655Z,1003.97
2016-05-19T04:47:28.612Z,1004.01
2016-05-19T04:48:28.567Z,1004.03
2016-05-19T04:49:28.711Z,1004.05
2016-05-19T04:50:31.480Z,1004.09
2016-05-19T04:51:31.419Z,1004.12
2016-05-19T04:52:28.563Z,1004.17
2016-05-19T04:53:31.315Z,1004.16
2016-05-19T04:54:28.256Z,1004.16
2016-05-19T04:55:28.211Z,1004.25
2016-05-19T04:56:28.151Z,1004.23
2016-05-19T04:57:28.108Z,1004.26
2016-05-19T04:58:31.079Z,1004.25
2016-05-19T04:59:31.019Z,1004.25
2016-05-19T05:00:27.960Z,1004.24
2016-05-19T05:01:27.915Z,1004.27
2016-05-19T05:02:30.887Z,1004.29
2016-05-19T05:03:27.811Z,1004.35
2016-05-19T05:04:30.767Z,1004.38
2016-05-19T05:05:27.720Z,1004.41
2016-05-19T05:06:27.660Z,1004.46
2016-05-19T05:07:30.618Z,1004.53
2016-05-19T05:08:30.575Z,1004.53
2016-05-19T05:09:27.512Z,1004.54
2016-05-19T05:10:30.470Z,1004.55
2016-05-19T05:11:27.408Z,1004.57
2016-05-19T05:12:27.567Z,1004.56
2016-05-19T05:13:27.304Z,1004.56
2016-05-19T05:14:30.278Z,1004.56
2016-05-19T05:15:27.216Z,1004.56
2016-05-19T05:16:27.156Z,1004.6
2016-05-19T05:17:27.112Z,1004.59
2016-05-19T05:18:30.070Z,1004.62
2016-05-19T05:19:27.023Z,1004.62
2016-05-19T05:20:26.964Z,1004.6
2016-05-19T05:21:26.919Z,1004.65
2016-05-19T05:22:26.860Z,1004.69
2016-05-19T05:23:26.815Z,1004.68
2016-05-19T05:24:29.790Z,1004.68
2016-05-19T05:25:26.712Z,1004.77
2016-05-19T05:26:26.667Z,1004.74
2016-05-19T05:27:26.623Z,1004.76
2016-05-19T05:28:26.563Z,1004.76
2016-05-19T05:29:26.519Z,1004.75
2016-05-19T05:30:26.475Z,1004.73
2016-05-19T05:31:26.415Z,1004.78
2016-05-19T05:32:26.371Z,1004.78
2016-05-19T05:33:26.327Z,1004.76
2016-05-19T05:34:26.267Z,1004.78
2016-05-19T05:35:26.223Z,1004.74
2016-05-19T05:36:26.163Z,1004.77
2016-05-19T05:37:26.134Z,1004.81
2016-05-19T05:38:26.074Z,1004.84
2016-05-19T05:39:26.015Z,1004.86
2016-05-19T05:40:25.971Z,1004.85
2016-05-19T05:41:25.926Z,1004.89
2016-05-19T05:42:28.898Z,1004.89
2016-05-19T05:43:25.838Z,1004.95
2016-05-19T05:44:25.779Z,1004.99
2016-05-19T05:45:28.734Z,1004.96
2016-05-19T05:46:25.675Z,1005
2016-05-19T05:47:28.645Z,1004.97
2016-05-19T05:48:25.570Z,1005.03
2016-05-19T05:49:25.572Z,1005.05
2016-05-19T05:50:25.467Z,1005.08
2016-05-19T05:51:28.438Z,1005.06
2016-05-19T05:52:28.394Z,1005.13
2016-05-19T05:53:25.334Z,1005.11
2016-05-19T05:54:25.289Z,1005.12
2016-05-19T05:55:25.230Z,1005.15
2016-05-19T05:56:25.186Z,1005.17
2016-05-19T05:57:25.141Z,1005.16
2016-05-19T05:58:25.082Z,1005.2
2016-05-19T05:59:25.224Z,1005.21
2016-05-19T06:00:24.977Z,1005.21
2016-05-19T06:01:24.949Z,1005.21
2016-05-19T06:02:24.889Z,1005.22
2016-05-19T06:03:27.846Z,1005.27
2016-05-19T06:04:24.785Z,1005.25
2016-05-19T06:05:24.741Z,1005.31
2016-05-19T06:06:24.682Z,1005.33
2016-05-19T06:07:27.652Z,1005.36
2016-05-19T06:08:24.593Z,1005.4
2016-05-19T06:09:24.532Z,1005.4
2016-05-19T06:10:24.489Z,1005.38
2016-05-19T06:11:24.445Z,1005.43
2016-05-19T06:12:24.384Z,1005.43
2016-05-19T06:13:27.356Z,1005.43
2016-05-19T06:14:24.296Z,1005.4
2016-05-19T06:15:24.237Z,1005.46
2016-05-19T06:16:24.193Z,1005.45
2016-05-19T06:17:24.133Z,1005.42
2016-05-19T06:18:24.089Z,1005.47
2016-05-19T06:19:24.059Z,1005.49
2016-05-19T06:20:24.016Z,1005.52
2016-05-19T06:21:23.955Z,1005.51
2016-05-19T06:22:23.897Z,1005.54
2016-05-19T06:23:24.320Z,1005.54
2016-05-19T06:24:23.792Z,1005.57
2016-05-19T06:25:23.764Z,1005.58
2016-05-19T06:26:23.704Z,1005.59
2016-05-19T06:27:23.644Z,1005.62
2016-05-19T06:28:23.599Z,1005.62
2016-05-19T06:29:23.555Z,1005.63
2016-05-19T06:30:26.511Z,1005.67
2016-05-19T06:31:23.451Z,1005.67
2016-05-19T06:32:23.408Z,1005.66
2016-05-19T06:33:23.347Z,1005.7
2016-05-19T06:34:23.304Z,1005.78
2016-05-19T06:35:23.260Z,1005.78
2016-05-19T06:36:23.199Z,1005.81
2016-05-19T06:37:26.155Z,1005.85
2016-05-19T06:38:23.564Z,1005.88
2016-05-19T06:39:23.067Z,1005.92
2016-05-19T06:40:23.023Z,1005.94
2016-05-19T06:41:22.963Z,1005.97
2016-05-19T06:42:22.918Z,1005.93
2016-05-19T06:43:22.859Z,1005.97
2016-05-19T06:44:22.799Z,1005.98
2016-05-19T06:45:22.755Z,1005.96
2016-05-19T06:46:25.726Z,1006.04
2016-05-19T06:47:22.667Z,1006.06
2016-05-19T06:48:22.623Z,1006.07
2016-05-19T06:49:22.562Z,1006.05
2016-05-19T06:50:22.517Z,1006.02
2016-05-19T06:51:22.458Z,1006.08
2016-05-19T06:52:25.430Z,1006.09
2016-05-19T06:53:22.355Z,1006.11
2016-05-19T06:54:22.311Z,1006.1
2016-05-19T06:55:22.281Z,1006.11
2016-05-19T06:56:22.222Z,1006.1
2016-05-19T06:57:22.162Z,1006.14
2016-05-19T06:58:22.119Z,1006.18
2016-05-19T06:59:22.088Z,1006.16
2016-05-19T07:00:22.030Z,1006.2
2016-05-19T07:01:21.969Z,1006.21
2016-05-19T07:02:21.925Z,1006.18
2016-05-19T07:03:21.881Z,1006.22
2016-05-19T07:04:21.821Z,1006.21
2016-05-19T07:05:21.980Z,1006.23
2016-05-19T07:06:21.733Z,1006.23
2016-05-19T07:07:21.673Z,1006.21
2016-05-19T07:08:21.645Z,1006.23
2016-05-19T07:09:21.585Z,1006.25
2016-05-19T07:10:24.540Z,1006.24
2016-05-19T07:11:21.481Z,1006.27
2016-05-19T07:12:21.437Z,1006.23
2016-05-19T07:13:21.408Z,1006.29
2016-05-19T07:14:21.332Z,1006.27
2016-05-19T07:15:21.273Z,1006.24
2016-05-19T07:16:21.431Z,1006.34
2016-05-19T07:17:24.200Z,1006.33
2016-05-19T07:18:21.140Z,1006.34
2016-05-19T07:19:21.096Z,1006.37
2016-05-19T07:20:24.239Z,1006.43
2016-05-19T07:21:20.976Z,1006.43
2016-05-19T07:22:29.948Z,1006.46
2016-05-19T07:23:29.903Z,1006.49
2016-05-19T07:24:20.844Z,1006.52
2016-05-19T07:25:20.816Z,1006.51
2016-05-19T07:26:20.756Z,1006.51
2016-05-19T07:27:20.696Z,1006.56
2016-05-19T07:28:20.652Z,1006.54
2016-05-19T07:29:20.623Z,1006.54
2016-05-19T07:30:20.548Z,1006.59
2016-05-19T07:31:20.503Z,1006.6
2016-05-19T07:32:20.991Z,1006.63
2016-05-19T07:33:23.399Z,1006.63
2016-05-19T07:34:23.355Z,1006.66
2016-05-19T07:35:20.311Z,1006.61
2016-05-19T07:36:20.267Z,1006.62
2016-05-19T07:37:20.207Z,1006.64
2016-05-19T07:38:20.179Z,1006.59
2016-05-19T07:39:23.118Z,1006.56
2016-05-19T07:40:20.059Z,1006.61
2016-05-19T07:41:23.905Z,1006.57
2016-05-19T07:42:20.017Z,1006.57
2016-05-19T07:43:19.910Z,1006.6
2016-05-19T07:44:19.867Z,1006.65
2016-05-19T07:45:19.822Z,1006.67
2016-05-19T07:46:19.779Z,1006.69
2016-05-19T07:47:19.718Z,1006.69
2016-05-19T07:48:19.673Z,1006.68
2016-05-19T07:49:19.615Z,1006.7
2016-05-19T07:50:19.571Z,1006.71
2016-05-19T07:51:19.729Z,1006.72
2016-05-19T07:52:19.482Z,1006.74
2016-05-19T07:53:19.625Z,1006.69
2016-05-19T07:54:19.378Z,1006.73
2016-05-19T07:55:19.349Z,1006.71
2016-05-19T07:56:19.289Z,1006.76
2016-05-19T07:57:19.245Z,1006.74
2016-05-19T07:58:19.186Z,1006.72
2016-05-19T07:59:19.141Z,1006.7
2016-05-19T08:00:19.300Z,1006.71
2016-05-19T08:01:19.069Z,1006.76
2016-05-19T08:02:19.008Z,1006.76
2016-05-19T08:03:18.949Z,1006.79
2016-05-19T08:04:21.904Z,1006.84
2016-05-19T08:05:18.860Z,1006.86
2016-05-19T08:06:21.816Z,1006.94
2016-05-19T08:07:18.757Z,1006.9
2016-05-19T08:08:19.260Z,1006.93
2016-05-19T08:09:18.653Z,1006.97
2016-05-19T08:10:18.608Z,1006.96
2016-05-19T08:11:18.580Z,1006.98
2016-05-19T08:12:18.535Z,1006.99
2016-05-19T08:13:18.491Z,1006.97
2016-05-19T08:14:18.416Z,1007
2016-05-19T08:15:18.371Z,1007.02
2016-05-19T08:16:18.328Z,1007.09
2016-05-19T08:17:18.284Z,1007.1
2016-05-19T08:18:21.240Z,1007.07
2016-05-19T08:19:18.398Z,1007.08
2016-05-19T08:20:18.339Z,1007.11
2016-05-19T08:21:21.091Z,1007.13
2016-05-19T08:22:18.031Z,1007.15
2016-05-19T08:23:17.987Z,1007.17
2016-05-19T08:24:17.942Z,1007.18
2016-05-19T08:25:17.898Z,1007.19
2016-05-19T08:26:20.854Z,1007.23
2016-05-19T08:27:20.810Z,1007.24
2016-05-19T08:28:17.969Z,1007.2
2016-05-19T08:29:17.722Z,1007.24
2016-05-19T08:30:17.647Z,1007.22
2016-05-19T08:31:17.633Z,1007.21
2016-05-19T08:32:20.558Z,1007.2
2016-05-19T08:33:17.514Z,1007.22
2016-05-19T08:34:17.469Z,1007.19
2016-05-19T08:35:17.426Z,1007.24
2016-05-19T08:36:17.366Z,1007.25
2016-05-19T08:37:17.322Z,1007.24
2016-05-19T08:38:17.277Z,1007.2
2016-05-19T08:39:20.233Z,1007.25
2016-05-19T08:40:17.173Z,1007.24
2016-05-19T08:41:17.129Z,1007.25
2016-05-19T08:42:17.085Z,1007.21
2016-05-19T08:43:17.026Z,1007.22
2016-05-19T08:44:16.982Z,1007.24
2016-05-19T08:45:16.937Z,1007.36
2016-05-19T08:46:16.893Z,1007.4
2016-05-19T08:47:16.848Z,1007.36
2016-05-19T08:48:16.789Z,1007.38
2016-05-19T08:49:16.744Z,1007.38
2016-05-19T08:50:16.700Z,1007.45
2016-05-19T08:51:19.672Z,1007.46
2016-05-19T08:52:16.800Z,1007.46
2016-05-19T08:53:16.552Z,1007.46
2016-05-19T08:54:16.508Z,1007.47
2016-05-19T08:55:16.464Z,1007.47
2016-05-19T08:56:16.420Z,1007.51
2016-05-19T08:57:19.359Z,1007.55
2016-05-19T08:58:16.331Z,1007.55
2016-05-19T08:59:16.286Z,1007.58
2016-05-19T09:00:16.227Z,1007.58
2016-05-19T09:01:16.183Z,1007.6
2016-05-19T09:02:25.139Z,1007.63
2016-05-19T09:03:16.283Z,1007.68
2016-05-19T09:04:16.035Z,1007.67
2016-05-19T09:05:16.022Z,1007.72
2016-05-19T09:06:15.947Z,1007.71
2016-05-19T09:07:15.886Z,1007.72
2016-05-19T09:08:15.920Z,1007.76
2016-05-19T09:09:16.001Z,1007.78
2016-05-19T09:10:15.754Z,1007.78
2016-05-19T09:11:15.710Z,1007.85
2016-05-19T09:12:15.853Z,1007.84
2016-05-19T09:13:15.607Z,1007.88
2016-05-19T09:14:15.562Z,1007.9
2016-05-19T09:15:15.798Z,1007.88
2016-05-19T09:16:18.490Z,1007.9
2016-05-19T09:17:15.413Z,1007.92
2016-05-19T09:18:18.370Z,1007.9
2016-05-19T09:19:15.325Z,1007.92
2016-05-19T09:20:15.282Z,1007.89
2016-05-19T09:21:15.237Z,1007.87
2016-05-19T09:22:15.270Z,1007.92
2016-05-19T09:23:15.351Z,1007.93
2016-05-19T09:24:15.089Z,1007.92
2016-05-19T09:25:15.045Z,1007.93
2016-05-19T09:26:15.000Z,1007.94
2016-05-19T09:27:18.034Z,1007.95
2016-05-19T09:28:17.911Z,1007.88
2016-05-19T09:29:14.852Z,1007.94
2016-05-19T09:30:14.808Z,1007.92
2016-05-19T09:31:14.764Z,1007.95
2016-05-19T09:32:14.704Z,1007.93
2016-05-19T09:33:14.660Z,1007.95
2016-05-19T09:34:14.616Z,1008
2016-05-19T09:35:14.571Z,1007.94
2016-05-19T09:36:14.527Z,1008.01
2016-05-19T09:37:14.482Z,1008
2016-05-19T09:38:14.455Z,1008.03
2016-05-19T09:39:14.880Z,1008.06
2016-05-19T09:40:14.335Z,1008.1
2016-05-19T09:41:14.353Z,1008.07
2016-05-19T09:42:14.449Z,1008.07
2016-05-19T09:43:14.233Z,1008.11
2016-05-19T09:44:14.143Z,1008.12
2016-05-19T09:45:14.113Z,1008.11
2016-05-19T09:46:14.085Z,1008.15
2016-05-19T09:47:14.010Z,1008.16
2016-05-19T09:48:13.951Z,1008.12
2016-05-19T09:49:13.921Z,1008.16
2016-05-19T09:50:13.877Z,1008.14
2016-05-19T09:51:13.818Z,1008.16
2016-05-19T09:52:13.773Z,1008.16
2016-05-19T09:53:13.714Z,1008.15
2016-05-19T09:54:13.717Z,1008.15
2016-05-19T09:55:13.625Z,1008.2
2016-05-19T09:56:13.581Z,1008.24
2016-05-19T09:57:13.521Z,1008.25
2016-05-19T09:58:13.602Z,1008.23
2016-05-19T09:59:16.448Z,1008.26
2016-05-19T10:00:16.404Z,1008.29
2016-05-19T10:01:13.344Z,1008.29
2016-05-19T10:02:16.347Z,1008.28
2016-05-19T10:03:13.256Z,1008.31
2016-05-19T10:04:13.212Z,1008.29
2016-05-19T10:05:13.152Z,1008.31
2016-05-19T10:06:13.124Z,1008.31
2016-05-19T10:07:13.064Z,1008.29
2016-05-19T10:08:13.036Z,1008.28
2016-05-19T10:09:12.975Z,1008.34
2016-05-19T10:10:12.916Z,1008.36
2016-05-19T10:11:12.871Z,1008.32
2016-05-19T10:12:12.874Z,1008.36
2016-05-19T10:13:12.799Z,1008.4
2016-05-19T10:14:12.739Z,1008.37
2016-05-19T10:15:12.694Z,1008.4
2016-05-19T10:16:12.651Z,1008.4
2016-05-19T10:17:12.607Z,1008.42
2016-05-19T10:18:12.562Z,1008.43
2016-05-19T10:19:12.518Z,1008.41
2016-05-19T10:20:12.458Z,1008.44
2016-05-19T10:21:12.415Z,1008.47
2016-05-19T10:22:12.370Z,1008.49
2016-05-19T10:23:12.326Z,1008.5
2016-05-19T10:24:14.468Z,1008.49
2016-05-19T10:25:12.362Z,1008.54
2016-05-19T10:26:12.209Z,1008.47
2016-05-19T10:27:15.134Z,1008.48
2016-05-19T10:28:12.120Z,1008.46
2016-05-19T10:29:15.061Z,1008.48
2016-05-19T10:30:12.204Z,1008.43
2016-05-19T10:31:11.941Z,1008.48
2016-05-19T10:32:11.897Z,1008.49
2016-05-19T10:33:11.868Z,1008.47
2016-05-19T10:34:11.840Z,1008.51
2016-05-19T10:35:11.748Z,1008.54
2016-05-19T10:36:11.720Z,1008.51
2016-05-19T10:37:11.675Z,1008.48
2016-05-19T10:38:11.616Z,1008.47
2016-05-19T10:39:11.572Z,1008.54
2016-05-19T10:40:11.528Z,1008.56
2016-05-19T10:41:11.514Z,1008.57
2016-05-19T10:42:11.439Z,1008.61
2016-05-19T10:43:11.427Z,1008.62
2016-05-19T10:44:11.538Z,1008.61
2016-05-19T10:45:11.291Z,1008.6
2016-05-19T10:46:11.263Z,1008.61
2016-05-19T10:47:11.219Z,1008.61
2016-05-19T10:48:11.158Z,1008.61
2016-05-19T10:49:11.927Z,1008.62
2016-05-19T10:50:11.070Z,1008.68
2016-05-19T10:51:11.010Z,1008.63
2016-05-19T10:52:10.966Z,1008.63
2016-05-19T10:53:10.922Z,1008.66
2016-05-19T10:54:13.893Z,1008.7
2016-05-19T10:55:10.849Z,1008.71
2016-05-19T10:56:10.790Z,1008.72
2016-05-19T10:57:10.932Z,1008.77
2016-05-19T10:58:10.700Z,1008.77
2016-05-19T10:59:10.642Z,1008.76
2016-05-19T11:00:10.613Z,1008.78
2016-05-19T11:01:10.553Z,1008.73
2016-05-19T11:02:10.509Z,1008.73
2016-05-19T11:03:10.464Z,1008.75
2016-05-19T11:04:13.436Z,1008.79
2016-05-19T11:05:10.360Z,1008.76
2016-05-19T11:06:10.316Z,1008.76
2016-05-19T11:07:13.288Z,1008.79
2016-05-19T11:08:10.228Z,1008.78
2016-05-19T11:09:10.387Z,1008.78
2016-05-19T11:10:10.171Z,1008.8
2016-05-19T11:11:10.094Z,1008.79
2016-05-19T11:12:13.051Z,1008.82
2016-05-19T11:13:10.008Z,1008.81
2016-05-19T11:14:12.947Z,1008.8
2016-05-19T11:15:09.903Z,1008.74
2016-05-19T11:16:09.874Z,1008.76
2016-05-19T11:17:12.830Z,1008.8
2016-05-19T11:18:09.770Z,1008.77
2016-05-19T11:19:09.710Z,1008.73
2016-05-19T11:20:09.682Z,1008.71
2016-05-19T11:21:09.622Z,1008.72
2016-05-19T11:22:09.578Z,1008.73
2016-05-19T11:23:09.534Z,1008.75
2016-05-19T11:24:09.490Z,1008.79
2016-05-19T11:25:12.446Z,1008.75
2016-05-19T11:26:09.401Z,1008.77
2016-05-19T11:27:09.357Z,1008.81
2016-05-19T11:28:09.313Z,1008.76
2016-05-19T11:29:09.269Z,1008.8
2016-05-19T11:30:09.209Z,1008.77
2016-05-19T11:31:09.181Z,1008.74
2016-05-19T11:32:09.214Z,1008.75
2016-05-19T11:33:10.436Z,1008.77
2016-05-19T11:34:12.156Z,1008.77
2016-05-19T11:35:08.972Z,1008.82
2016-05-19T11:36:11.944Z,1008.78
2016-05-19T11:37:12.165Z,1008.77
2016-05-19T11:38:11.855Z,1008.78
2016-05-19T11:39:12.030Z,1008.82
2016-05-19T11:40:08.751Z,1008.83
2016-05-19T11:41:08.707Z,1008.83
2016-05-19T11:42:08.679Z,1008.84
2016-05-19T11:43:08.619Z,1008.88
2016-05-19T11:44:08.574Z,1008.95
2016-05-19T11:45:08.530Z,1008.92
2016-05-19T11:46:08.486Z,1008.96
2016-05-19T11:47:08.480Z,1008.94
2016-05-19T11:48:11.476Z,1008.97
2016-05-19T11:49:08.487Z,1008.99
2016-05-19T11:50:08.469Z,1008.94
2016-05-19T11:51:08.464Z,1008.95
2016-05-19T11:52:08.437Z,1008.94
2016-05-19T11:53:11.407Z,1008.95
2016-05-19T11:54:08.580Z,1008.91
2016-05-19T11:55:08.332Z,1008.94
2016-05-19T11:56:08.318Z,1008.93
2016-05-19T11:57:08.467Z,1008.93
2016-05-19T11:58:08.241Z,1008.97
2016-05-19T11:59:08.186Z,1008.93
2016-05-19T12:00:11.164Z,1008.96
2016-05-19T12:01:08.094Z,1008.95
2016-05-19T12:02:11.068Z,1008.89
2016-05-19T12:03:08.009Z,1008.95
2016-05-19T12:04:07.966Z,1008.93
2016-05-19T12:05:07.924Z,1008.9
2016-05-19T12:06:08.304Z,1008.93
2016-05-19T12:07:07.839Z,1008.94
2016-05-19T12:08:07.796Z,1008.96